sensor_id;sensor_type;location;lat;lon;timestamp;P1;durP1;ratioP1;P2;durP2;ratioP2
70812;SDS011;62099;52.170;5.386;2022-10-16T00:01:16;2.97;;;1.08;;
70812;SDS011;62099;52.170;5.386;2022-10-16T00:03:44;8.32;;;1.67;;
70812;SDS011;62099;52.170;5.386;2022-10-16T00:06:12;8.80;;;1.52;;
70812;SDS011;62099;52.170;5.386;2022-10-16T00:08:40;8.50;;;1.55;;
70812;SDS011;62099;52.170;5.386;2022-10-16T00:11:10;4.88;;;1.60;;
70812;SDS011;62099;52.170;5.386;2022-10-16T00:13:39;5.28;;;1.30;;
70812;SDS011;62099;52.170;5.386;2022-10-16T00:16:07;6.60;;;1.60;;
70812;SDS011;62099;52.170;5.386;2022-10-16T00:18:35;7.43;;;1.80;;
70812;SDS011;62099;52.170;5.386;2022-10-16T00:21:04;6.93;;;1.27;;
70812;SDS011;62099;52.170;5.386;2022-10-16T00:23:32;8.38;;;1.77;;
70812;SDS011;62099;52.170;5.386;2022-10-16T00:26:00;9.15;;;2.03;;
70812;SDS011;62099;52.170;5.386;2022-10-16T00:28:29;7.22;;;1.65;;
70812;SDS011;62099;52.170;5.386;2022-10-16T00:30:56;5.90;;;1.70;;
70812;SDS011;62099;52.170;5.386;2022-10-16T00:33:24;6.30;;;2.03;;
70812;SDS011;62099;52.170;5.386;2022-10-16T00:38:17;4.97;;;1.92;;
70812;SDS011;62099;52.170;5.386;2022-10-16T00:40:44;5.60;;;1.70;;
70812;SDS011;62099;52.170;5.386;2022-10-16T00:43:31;7.90;;;2.35;;
70812;SDS011;62099;52.170;5.386;2022-10-16T00:51:23;9.85;;;1.70;;
70812;SDS011;62099;52.170;5.386;2022-10-16T00:53:54;5.43;;;1.83;;
70812;SDS011;62099;52.170;5.386;2022-10-16T00:56:22;7.70;;;2.15;;
70812;SDS011;62099;52.170;5.386;2022-10-16T00:58:49;6.90;;;2.20;;
70812;SDS011;62099;52.170;5.386;2022-10-16T01:01:16;5.03;;;1.80;;
70812;SDS011;62099;52.170;5.386;2022-10-16T01:03:43;5.53;;;1.70;;
70812;SDS011;62099;52.170;5.386;2022-10-16T01:11:39;5.00;;;1.75;;
70812;SDS011;62099;52.170;5.386;2022-10-16T01:17:39;8.13;;;1.92;;
70812;SDS011;62099;52.170;5.386;2022-10-16T01:22:57;6.63;;;2.00;;
70812;SDS011;62099;52.170;5.386;2022-10-16T01:25:45;5.60;;;1.90;;
70812;SDS011;62099;52.170;5.386;2022-10-16T01:28:19;7.30;;;2.13;;
70812;SDS011;62099;52.170;5.386;2022-10-16T01:30:49;9.13;;;2.08;;
70812;SDS011;62099;52.170;5.386;2022-10-16T01:33:20;7.03;;;2.10;;
70812;SDS011;62099;52.170;5.386;2022-10-16T01:35:56;5.95;;;1.98;;
70812;SDS011;62099;52.170;5.386;2022-10-16T01:38:33;8.50;;;2.40;;
70812;SDS011;62099;52.170;5.386;2022-10-16T01:41:10;7.40;;;2.22;;
70812;SDS011;62099;52.170;5.386;2022-10-16T01:43:42;10.02;;;2.20;;
70812;SDS011;62099;52.170;5.386;2022-10-16T01:46:16;8.90;;;2.17;;
70812;SDS011;62099;52.170;5.386;2022-10-16T01:48:46;5.40;;;2.15;;
70812;SDS011;62099;52.170;5.386;2022-10-16T01:51:14;10.15;;;2.50;;
70812;SDS011;62099;52.170;5.386;2022-10-16T01:53:45;9.82;;;2.05;;
70812;SDS011;62099;52.170;5.386;2022-10-16T01:56:15;7.10;;;2.10;;
70812;SDS011;62099;52.170;5.386;2022-10-16T01:58:46;8.02;;;2.53;;
70812;SDS011;62099;52.170;5.386;2022-10-16T02:01:21;5.47;;;2.05;;
70812;SDS011;62099;52.170;5.386;2022-10-16T02:03:51;6.57;;;2.45;;
70812;SDS011;62099;52.170;5.386;2022-10-16T02:06:21;5.88;;;2.05;;
70812;SDS011;62099;52.170;5.386;2022-10-16T02:08:49;6.78;;;2.20;;
70812;SDS011;62099;52.170;5.386;2022-10-16T02:11:15;5.43;;;2.25;;
70812;SDS011;62099;52.170;5.386;2022-10-16T02:13:44;6.22;;;2.10;;
70812;SDS011;62099;52.170;5.386;2022-10-16T02:16:14;6.47;;;2.05;;
70812;SDS011;62099;52.170;5.386;2022-10-16T02:18:41;8.07;;;2.20;;
70812;SDS011;62099;52.170;5.386;2022-10-16T02:21:13;7.13;;;2.47;;
70812;SDS011;62099;52.170;5.386;2022-10-16T02:23:57;14.57;;;3.33;;
70812;SDS011;62099;52.170;5.386;2022-10-16T02:26:57;7.53;;;2.42;;
70812;SDS011;62099;52.170;5.386;2022-10-16T02:29:35;7.20;;;2.65;;
70812;SDS011;62099;52.170;5.386;2022-10-16T02:32:17;5.75;;;2.22;;
70812;SDS011;62099;52.170;5.386;2022-10-16T02:34:48;8.25;;;2.38;;
70812;SDS011;62099;52.170;5.386;2022-10-16T02:37:16;7.10;;;2.55;;
70812;SDS011;62099;52.170;5.386;2022-10-16T02:39:44;8.30;;;2.10;;
70812;SDS011;62099;52.170;5.386;2022-10-16T02:42:14;7.90;;;2.22;;
70812;SDS011;62099;52.170;5.386;2022-10-16T02:44:42;6.53;;;2.45;;
70812;SDS011;62099;52.170;5.386;2022-10-16T02:47:08;7.00;;;2.20;;
70812;SDS011;62099;52.170;5.386;2022-10-16T02:49:40;5.93;;;2.42;;
70812;SDS011;62099;52.170;5.386;2022-10-16T02:52:07;6.05;;;1.98;;
70812;SDS011;62099;52.170;5.386;2022-10-16T02:54:34;6.50;;;2.35;;
70812;SDS011;62099;52.170;5.386;2022-10-16T02:57:01;6.35;;;2.40;;
70812;SDS011;62099;52.170;5.386;2022-10-16T02:59:27;6.00;;;2.15;;
70812;SDS011;62099;52.170;5.386;2022-10-16T03:01:54;6.75;;;2.25;;
70812;SDS011;62099;52.170;5.386;2022-10-16T03:04:21;4.60;;;2.10;;
70812;SDS011;62099;52.170;5.386;2022-10-16T03:06:47;6.13;;;2.30;;
70812;SDS011;62099;52.170;5.386;2022-10-16T03:09:14;6.57;;;2.10;;
70812;SDS011;62099;52.170;5.386;2022-10-16T03:11:41;8.55;;;2.33;;
70812;SDS011;62099;52.170;5.386;2022-10-16T03:14:08;6.50;;;1.98;;
70812;SDS011;62099;52.170;5.386;2022-10-16T03:16:35;8.15;;;2.10;;
70812;SDS011;62099;52.170;5.386;2022-10-16T03:19:01;6.28;;;2.35;;
70812;SDS011;62099;52.170;5.386;2022-10-16T03:21:28;6.00;;;1.90;;
70812;SDS011;62099;52.170;5.386;2022-10-16T03:23:55;5.72;;;1.90;;
70812;SDS011;62099;52.170;5.386;2022-10-16T03:26:22;10.43;;;2.20;;
70812;SDS011;62099;52.170;5.386;2022-10-16T03:28:49;7.25;;;1.95;;
70812;SDS011;62099;52.170;5.386;2022-10-16T03:31:15;6.35;;;1.92;;
70812;SDS011;62099;52.170;5.386;2022-10-16T03:33:42;6.88;;;2.35;;
70812;SDS011;62099;52.170;5.386;2022-10-16T03:36:09;6.00;;;1.98;;
70812;SDS011;62099;52.170;5.386;2022-10-16T03:38:35;5.57;;;1.98;;
70812;SDS011;62099;52.170;5.386;2022-10-16T03:41:02;6.15;;;2.03;;
70812;SDS011;62099;52.170;5.386;2022-10-16T03:43:30;4.90;;;1.90;;
70812;SDS011;62099;52.170;5.386;2022-10-16T03:45:56;6.55;;;2.10;;
70812;SDS011;62099;52.170;5.386;2022-10-16T03:48:23;9.88;;;2.53;;
70812;SDS011;62099;52.170;5.386;2022-10-16T03:50:50;5.85;;;1.90;;
70812;SDS011;62099;52.170;5.386;2022-10-16T03:53:17;6.13;;;1.83;;
70812;SDS011;62099;52.170;5.386;2022-10-16T03:55:44;4.78;;;2.00;;
70812;SDS011;62099;52.170;5.386;2022-10-16T03:58:11;6.78;;;1.63;;
70812;SDS011;62099;52.170;5.386;2022-10-16T04:00:42;4.68;;;1.80;;
70812;SDS011;62099;52.170;5.386;2022-10-16T04:03:09;7.57;;;2.17;;
70812;SDS011;62099;52.170;5.386;2022-10-16T04:08:02;6.72;;;2.08;;
70812;SDS011;62099;52.170;5.386;2022-10-16T04:12:56;6.50;;;2.00;;
70812;SDS011;62099;52.170;5.386;2022-10-16T04:15:24;6.32;;;1.80;;
70812;SDS011;62099;52.170;5.386;2022-10-16T04:17:51;4.38;;;1.60;;
70812;SDS011;62099;52.170;5.386;2022-10-16T04:20:18;4.82;;;1.90;;
70812;SDS011;62099;52.170;5.386;2022-10-16T04:22:45;7.13;;;1.90;;
70812;SDS011;62099;52.170;5.386;2022-10-16T04:25:12;8.48;;;2.08;;
70812;SDS011;62099;52.170;5.386;2022-10-16T04:27:39;6.25;;;1.63;;
70812;SDS011;62099;52.170;5.386;2022-10-16T04:30:11;4.65;;;1.75;;
70812;SDS011;62099;52.170;5.386;2022-10-16T04:32:38;7.50;;;1.92;;
70812;SDS011;62099;52.170;5.386;2022-10-16T04:35:05;6.18;;;1.38;;
70812;SDS011;62099;52.170;5.386;2022-10-16T04:37:32;5.20;;;1.73;;
70812;SDS011;62099;52.170;5.386;2022-10-16T04:39:59;5.13;;;1.88;;
70812;SDS011;62099;52.170;5.386;2022-10-16T04:42:26;6.05;;;1.70;;
70812;SDS011;62099;52.170;5.386;2022-10-16T04:44:53;6.03;;;1.90;;
70812;SDS011;62099;52.170;5.386;2022-10-16T04:47:20;6.20;;;2.05;;
70812;SDS011;62099;52.170;5.386;2022-10-16T04:49:47;5.32;;;1.80;;
70812;SDS011;62099;52.170;5.386;2022-10-16T04:52:13;12.70;;;2.00;;
70812;SDS011;62099;52.170;5.386;2022-10-16T04:54:41;5.57;;;1.65;;
70812;SDS011;62099;52.170;5.386;2022-10-16T04:57:08;4.25;;;1.65;;
70812;SDS011;62099;52.170;5.386;2022-10-16T04:59:34;4.93;;;1.80;;
70812;SDS011;62099;52.170;5.386;2022-10-16T05:02:02;7.07;;;1.75;;
70812;SDS011;62099;52.170;5.386;2022-10-16T05:04:29;4.45;;;1.63;;
70812;SDS011;62099;52.170;5.386;2022-10-16T05:06:55;5.15;;;1.60;;
70812;SDS011;62099;52.170;5.386;2022-10-16T05:09:22;5.97;;;2.17;;
70812;SDS011;62099;52.170;5.386;2022-10-16T05:11:49;5.43;;;1.83;;
70812;SDS011;62099;52.170;5.386;2022-10-16T05:14:15;4.88;;;1.80;;
70812;SDS011;62099;52.170;5.386;2022-10-16T05:16:42;6.90;;;1.92;;
70812;SDS011;62099;52.170;5.386;2022-10-16T05:19:09;4.43;;;1.60;;
70812;SDS011;62099;52.170;5.386;2022-10-16T05:21:53;4.15;;;1.75;;
70812;SDS011;62099;52.170;5.386;2022-10-16T05:24:20;5.65;;;1.80;;
70812;SDS011;62099;52.170;5.386;2022-10-16T05:26:47;13.98;;;2.00;;
70812;SDS011;62099;52.170;5.386;2022-10-16T05:29:14;7.55;;;2.00;;
70812;SDS011;62099;52.170;5.386;2022-10-16T05:31:41;5.10;;;1.92;;
70812;SDS011;62099;52.170;5.386;2022-10-16T05:34:08;6.45;;;1.98;;
70812;SDS011;62099;52.170;5.386;2022-10-16T05:36:35;4.95;;;1.80;;
70812;SDS011;62099;52.170;5.386;2022-10-16T05:39:02;6.13;;;1.92;;
70812;SDS011;62099;52.170;5.386;2022-10-16T05:41:29;6.82;;;1.90;;
70812;SDS011;62099;52.170;5.386;2022-10-16T05:43:56;4.20;;;1.95;;
70812;SDS011;62099;52.170;5.386;2022-10-16T05:46:23;3.60;;;1.77;;
70812;SDS011;62099;52.170;5.386;2022-10-16T05:48:51;10.00;;;2.03;;
70812;SDS011;62099;52.170;5.386;2022-10-16T05:51:19;9.32;;;2.00;;
70812;SDS011;62099;52.170;5.386;2022-10-16T05:53:46;7.68;;;2.00;;
70812;SDS011;62099;52.170;5.386;2022-10-16T05:56:13;6.53;;;2.00;;
70812;SDS011;62099;52.170;5.386;2022-10-16T05:58:40;7.90;;;2.15;;
70812;SDS011;62099;52.170;5.386;2022-10-16T06:01:09;5.80;;;1.90;;
70812;SDS011;62099;52.170;5.386;2022-10-16T06:03:38;5.97;;;2.03;;
70812;SDS011;62099;52.170;5.386;2022-10-16T06:06:10;7.13;;;1.80;;
70812;SDS011;62099;52.170;5.386;2022-10-16T06:08:41;8.80;;;2.45;;
70812;SDS011;62099;52.170;5.386;2022-10-16T06:11:09;4.60;;;2.38;;
70812;SDS011;62099;52.170;5.386;2022-10-16T06:13:37;5.63;;;1.95;;
70812;SDS011;62099;52.170;5.386;2022-10-16T06:16:07;6.30;;;2.10;;
70812;SDS011;62099;52.170;5.386;2022-10-16T06:18:34;6.88;;;1.77;;
70812;SDS011;62099;52.170;5.386;2022-10-16T06:21:06;7.25;;;2.38;;
70812;SDS011;62099;52.170;5.386;2022-10-16T06:23:35;6.55;;;2.30;;
70812;SDS011;62099;52.170;5.386;2022-10-16T06:26:08;6.93;;;2.00;;
70812;SDS011;62099;52.170;5.386;2022-10-16T06:28:37;5.68;;;2.03;;
70812;SDS011;62099;52.170;5.386;2022-10-16T06:31:05;6.40;;;2.45;;
70812;SDS011;62099;52.170;5.386;2022-10-16T06:33:34;4.65;;;2.13;;
70812;SDS011;62099;52.170;5.386;2022-10-16T06:36:12;7.93;;;2.90;;
70812;SDS011;62099;52.170;5.386;2022-10-16T06:38:40;6.95;;;2.30;;
70812;SDS011;62099;52.170;5.386;2022-10-16T06:41:09;6.28;;;2.28;;
70812;SDS011;62099;52.170;5.386;2022-10-16T06:43:40;6.05;;;2.30;;
70812;SDS011;62099;52.170;5.386;2022-10-16T06:48:36;6.70;;;2.20;;
70812;SDS011;62099;52.170;5.386;2022-10-16T06:51:10;7.20;;;2.22;;
70812;SDS011;62099;52.170;5.386;2022-10-16T06:53:41;6.65;;;2.00;;
70812;SDS011;62099;52.170;5.386;2022-10-16T06:56:31;7.28;;;2.45;;
70812;SDS011;62099;52.170;5.386;2022-10-16T06:58:58;5.82;;;2.17;;
70812;SDS011;62099;52.170;5.386;2022-10-16T07:01:26;8.18;;;2.22;;
70812;SDS011;62099;52.170;5.386;2022-10-16T07:06:20;5.80;;;2.20;;
70812;SDS011;62099;52.170;5.386;2022-10-16T07:08:48;5.22;;;2.55;;
70812;SDS011;62099;52.170;5.386;2022-10-16T07:11:16;5.18;;;1.80;;
70812;SDS011;62099;52.170;5.386;2022-10-16T07:13:44;7.20;;;2.03;;
70812;SDS011;62099;52.170;5.386;2022-10-16T07:16:21;5.85;;;1.80;;
70812;SDS011;62099;52.170;5.386;2022-10-16T07:18:49;5.53;;;1.70;;
70812;SDS011;62099;52.170;5.386;2022-10-16T07:21:21;7.60;;;2.05;;
70812;SDS011;62099;52.170;5.386;2022-10-16T07:23:52;4.90;;;1.73;;
70812;SDS011;62099;52.170;5.386;2022-10-16T07:26:20;8.13;;;1.83;;
70812;SDS011;62099;52.170;5.386;2022-10-16T07:28:47;4.50;;;1.65;;
70812;SDS011;62099;52.170;5.386;2022-10-16T07:31:15;2.83;;;1.30;;
70812;SDS011;62099;52.170;5.386;2022-10-16T07:33:43;8.57;;;1.58;;
70812;SDS011;62099;52.170;5.386;2022-10-16T07:36:11;8.38;;;2.08;;
70812;SDS011;62099;52.170;5.386;2022-10-16T07:38:42;3.28;;;1.20;;
70812;SDS011;62099;52.170;5.386;2022-10-16T07:41:10;5.75;;;1.58;;
70812;SDS011;62099;52.170;5.386;2022-10-16T07:43:38;4.60;;;1.52;;
70812;SDS011;62099;52.170;5.386;2022-10-16T07:46:05;5.68;;;1.30;;
70812;SDS011;62099;52.170;5.386;2022-10-16T07:48:33;9.93;;;1.40;;
70812;SDS011;62099;52.170;5.386;2022-10-16T07:51:01;3.95;;;1.23;;
70812;SDS011;62099;52.170;5.386;2022-10-16T07:53:30;10.55;;;1.60;;
70812;SDS011;62099;52.170;5.386;2022-10-16T07:56:04;5.55;;;1.42;;
70812;SDS011;62099;52.170;5.386;2022-10-16T07:58:32;4.88;;;1.70;;
70812;SDS011;62099;52.170;5.386;2022-10-16T08:01:03;7.30;;;2.47;;
70812;SDS011;62099;52.170;5.386;2022-10-16T08:03:31;6.35;;;1.98;;
70812;SDS011;62099;52.170;5.386;2022-10-16T08:05:59;12.52;;;2.25;;
70812;SDS011;62099;52.170;5.386;2022-10-16T08:08:26;6.60;;;2.33;;
70812;SDS011;62099;52.170;5.386;2022-10-16T08:10:54;6.50;;;2.58;;
70812;SDS011;62099;52.170;5.386;2022-10-16T08:13:20;9.57;;;2.17;;
70812;SDS011;62099;52.170;5.386;2022-10-16T08:15:48;7.60;;;2.30;;
70812;SDS011;62099;52.170;5.386;2022-10-16T08:18:15;5.78;;;2.13;;
70812;SDS011;62099;52.170;5.386;2022-10-16T08:20:42;7.40;;;2.30;;
70812;SDS011;62099;52.170;5.386;2022-10-16T08:23:10;6.88;;;2.35;;
70812;SDS011;62099;52.170;5.386;2022-10-16T08:25:38;8.57;;;2.17;;
70812;SDS011;62099;52.170;5.386;2022-10-16T08:28:08;5.40;;;1.73;;
70812;SDS011;62099;52.170;5.386;2022-10-16T08:30:36;8.98;;;1.95;;
70812;SDS011;62099;52.170;5.386;2022-10-16T08:33:03;8.07;;;2.00;;
70812;SDS011;62099;52.170;5.386;2022-10-16T08:35:30;8.52;;;2.22;;
70812;SDS011;62099;52.170;5.386;2022-10-16T08:37:57;5.10;;;1.90;;
70812;SDS011;62099;52.170;5.386;2022-10-16T08:40:33;11.50;;;2.10;;
70812;SDS011;62099;52.170;5.386;2022-10-16T08:43:09;7.13;;;1.95;;
70812;SDS011;62099;52.170;5.386;2022-10-16T08:48:22;4.38;;;1.50;;
70812;SDS011;62099;52.170;5.386;2022-10-16T08:51:01;7.07;;;1.70;;
70812;SDS011;62099;52.170;5.386;2022-10-16T08:53:30;8.35;;;1.90;;
70812;SDS011;62099;52.170;5.386;2022-10-16T08:56:02;8.82;;;2.08;;
70812;SDS011;62099;52.170;5.386;2022-10-16T08:58:30;4.85;;;1.70;;
70812;SDS011;62099;52.170;5.386;2022-10-16T09:00:58;8.45;;;1.92;;
70812;SDS011;62099;52.170;5.386;2022-10-16T09:03:33;4.45;;;1.85;;
70812;SDS011;62099;52.170;5.386;2022-10-16T09:23:15;7.47;;;1.52;;
70812;SDS011;62099;52.170;5.386;2022-10-16T09:28:13;8.90;;;1.40;;
70812;SDS011;62099;52.170;5.386;2022-10-16T09:30:41;12.82;;;1.92;;
70812;SDS011;62099;52.170;5.386;2022-10-16T09:33:09;6.47;;;1.75;;
70812;SDS011;62099;52.170;5.386;2022-10-16T09:35:38;8.77;;;2.05;;
70812;SDS011;62099;52.170;5.386;2022-10-16T09:38:06;5.22;;;1.50;;
70812;SDS011;62099;52.170;5.386;2022-10-16T09:40:35;9.02;;;1.92;;
70812;SDS011;62099;52.170;5.386;2022-10-16T09:43:19;9.40;;;1.70;;
70812;SDS011;62099;52.170;5.386;2022-10-16T09:45:53;14.05;;;2.13;;
70812;SDS011;62099;52.170;5.386;2022-10-16T09:48:33;8.93;;;1.52;;
70812;SDS011;62099;52.170;5.386;2022-10-16T09:51:04;11.82;;;1.73;;
70812;SDS011;62099;52.170;5.386;2022-10-16T09:54:13;8.63;;;1.65;;
70812;SDS011;62099;52.170;5.386;2022-10-16T09:59:20;10.98;;;1.90;;
70812;SDS011;62099;52.170;5.386;2022-10-16T10:01:50;11.82;;;1.65;;
70812;SDS011;62099;52.170;5.386;2022-10-16T10:04:19;9.60;;;1.58;;
70812;SDS011;62099;52.170;5.386;2022-10-16T10:06:47;9.45;;;1.58;;
70812;SDS011;62099;52.170;5.386;2022-10-16T10:09:18;14.82;;;1.55;;
70812;SDS011;62099;52.170;5.386;2022-10-16T10:16:50;7.95;;;1.80;;
70812;SDS011;62099;52.170;5.386;2022-10-16T10:19:22;12.70;;;1.55;;
70812;SDS011;62099;52.170;5.386;2022-10-16T10:21:55;10.27;;;1.83;;
70812;SDS011;62099;52.170;5.386;2022-10-16T10:24:22;14.15;;;1.98;;
70812;SDS011;62099;52.170;5.386;2022-10-16T10:33:05;8.65;;;2.03;;
70812;SDS011;62099;52.170;5.386;2022-10-16T10:46:36;8.40;;;1.52;;
70812;SDS011;62099;52.170;5.386;2022-10-16T10:52:34;5.38;;;1.70;;
70812;SDS011;62099;52.170;5.386;2022-10-16T11:05:40;14.48;;;2.22;;
70812;SDS011;62099;52.170;5.386;2022-10-16T11:08:09;11.00;;;1.67;;
70812;SDS011;62099;52.170;5.386;2022-10-16T11:10:47;7.35;;;1.60;;
70812;SDS011;62099;52.170;5.386;2022-10-16T11:13:36;7.72;;;1.33;;
70812;SDS011;62099;52.170;5.386;2022-10-16T11:16:49;8.27;;;1.90;;
70812;SDS011;62099;52.170;5.386;2022-10-16T11:21:49;16.13;;;1.60;;
70812;SDS011;62099;52.170;5.386;2022-10-16T11:24:23;11.55;;;1.92;;
70812;SDS011;62099;52.170;5.386;2022-10-16T11:27:03;6.88;;;1.75;;
70812;SDS011;62099;52.170;5.386;2022-10-16T11:29:34;9.30;;;1.50;;
70812;SDS011;62099;52.170;5.386;2022-10-16T11:32:14;8.43;;;1.70;;
70812;SDS011;62099;52.170;5.386;2022-10-16T11:35:07;8.50;;;1.85;;
70812;SDS011;62099;52.170;5.386;2022-10-16T11:37:49;11.25;;;1.60;;
70812;SDS011;62099;52.170;5.386;2022-10-16T11:40:22;10.98;;;1.45;;
70812;SDS011;62099;52.170;5.386;2022-10-16T11:45:42;10.63;;;1.77;;
70812;SDS011;62099;52.170;5.386;2022-10-16T11:51:30;7.35;;;1.50;;
70812;SDS011;62099;52.170;5.386;2022-10-16T11:56:57;10.38;;;1.30;;
70812;SDS011;62099;52.170;5.386;2022-10-16T11:59:37;5.93;;;1.40;;
70812;SDS011;62099;52.170;5.386;2022-10-16T12:02:28;5.13;;;1.17;;
70812;SDS011;62099;52.170;5.386;2022-10-16T12:05:19;9.75;;;1.60;;
70812;SDS011;62099;52.170;5.386;2022-10-16T12:08:04;15.20;;;1.70;;
70812;SDS011;62099;52.170;5.386;2022-10-16T12:10:39;6.40;;;1.40;;
70812;SDS011;62099;52.170;5.386;2022-10-16T12:13:27;5.80;;;1.20;;
70812;SDS011;62099;52.170;5.386;2022-10-16T12:18:32;11.18;;;1.70;;
70812;SDS011;62099;52.170;5.386;2022-10-16T12:20:59;10.50;;;1.77;;
70812;SDS011;62099;52.170;5.386;2022-10-16T12:23:31;9.10;;;2.10;;
70812;SDS011;62099;52.170;5.386;2022-10-16T12:26:37;11.52;;;1.52;;
70812;SDS011;62099;52.170;5.386;2022-10-16T12:31:47;9.38;;;2.05;;
70812;SDS011;62099;52.170;5.386;2022-10-16T12:34:29;8.80;;;1.33;;
70812;SDS011;62099;52.170;5.386;2022-10-16T12:39:46;5.85;;;1.10;;
70812;SDS011;62099;52.170;5.386;2022-10-16T12:47:35;13.65;;;1.38;;
70812;SDS011;62099;52.170;5.386;2022-10-16T12:50:21;9.75;;;1.33;;
70812;SDS011;62099;52.170;5.386;2022-10-16T12:52:52;8.85;;;1.35;;
70812;SDS011;62099;52.170;5.386;2022-10-16T12:55:21;7.72;;;1.25;;
70812;SDS011;62099;52.170;5.386;2022-10-16T13:00:46;7.32;;;1.30;;
70812;SDS011;62099;52.170;5.386;2022-10-16T13:03:36;10.23;;;1.50;;
70812;SDS011;62099;52.170;5.386;2022-10-16T13:14:23;10.93;;;1.50;;
70812;SDS011;62099;52.170;5.386;2022-10-16T13:27:54;7.72;;;1.27;;
70812;SDS011;62099;52.170;5.386;2022-10-16T13:33:20;6.78;;;1.40;;
70812;SDS011;62099;52.170;5.386;2022-10-16T13:36:18;8.88;;;1.40;;
70812;SDS011;62099;52.170;5.386;2022-10-16T13:41:17;11.32;;;1.40;;
70812;SDS011;62099;52.170;5.386;2022-10-16T13:43:50;7.47;;;1.40;;
70812;SDS011;62099;52.170;5.386;2022-10-16T13:46:20;6.22;;;1.08;;
70812;SDS011;62099;52.170;5.386;2022-10-16T13:49:00;7.43;;;1.35;;
70812;SDS011;62099;52.170;5.386;2022-10-16T13:51:30;10.80;;;1.40;;
70812;SDS011;62099;52.170;5.386;2022-10-16T13:53:58;8.55;;;1.38;;
70812;SDS011;62099;52.170;5.386;2022-10-16T13:56:26;7.25;;;1.33;;
70812;SDS011;62099;52.170;5.386;2022-10-16T13:58:57;8.68;;;1.60;;
70812;SDS011;62099;52.170;5.386;2022-10-16T14:01:27;11.80;;;1.83;;
70812;SDS011;62099;52.170;5.386;2022-10-16T14:04:05;7.80;;;1.30;;
70812;SDS011;62099;52.170;5.386;2022-10-16T14:06:35;7.95;;;1.40;;
70812;SDS011;62099;52.170;5.386;2022-10-16T14:09:14;8.00;;;1.20;;
70812;SDS011;62099;52.170;5.386;2022-10-16T14:11:53;8.13;;;1.63;;
70812;SDS011;62099;52.170;5.386;2022-10-16T14:14:34;7.97;;;1.50;;
70812;SDS011;62099;52.170;5.386;2022-10-16T14:17:16;9.07;;;1.45;;
70812;SDS011;62099;52.170;5.386;2022-10-16T14:19:46;9.80;;;1.55;;
70812;SDS011;62099;52.170;5.386;2022-10-16T14:27:57;7.88;;;1.60;;
70812;SDS011;62099;52.170;5.386;2022-10-16T14:30:51;9.60;;;1.40;;
70812;SDS011;62099;52.170;5.386;2022-10-16T14:36:06;8.63;;;1.25;;
70812;SDS011;62099;52.170;5.386;2022-10-16T14:38:40;10.05;;;1.30;;
70812;SDS011;62099;52.170;5.386;2022-10-16T14:41:28;13.43;;;1.90;;
70812;SDS011;62099;52.170;5.386;2022-10-16T14:44:01;7.53;;;1.67;;
70812;SDS011;62099;52.170;5.386;2022-10-16T14:46:31;8.77;;;1.50;;
70812;SDS011;62099;52.170;5.386;2022-10-16T14:49:03;8.32;;;1.13;;
70812;SDS011;62099;52.170;5.386;2022-10-16T14:51:37;9.60;;;1.70;;
70812;SDS011;62099;52.170;5.386;2022-10-16T14:54:08;7.82;;;1.40;;
70812;SDS011;62099;52.170;5.386;2022-10-16T14:56:42;11.35;;;1.48;;
70812;SDS011;62099;52.170;5.386;2022-10-16T15:02:17;15.35;;;1.45;;
70812;SDS011;62099;52.170;5.386;2022-10-16T15:04:45;9.55;;;1.52;;
70812;SDS011;62099;52.170;5.386;2022-10-16T15:07:11;13.88;;;2.00;;
70812;SDS011;62099;52.170;5.386;2022-10-16T15:09:38;8.82;;;1.50;;
70812;SDS011;62099;52.170;5.386;2022-10-16T15:14:31;13.35;;;1.60;;
70812;SDS011;62099;52.170;5.386;2022-10-16T15:16:58;11.68;;;1.98;;
70812;SDS011;62099;52.170;5.386;2022-10-16T15:19:26;11.00;;;1.13;;
70812;SDS011;62099;52.170;5.386;2022-10-16T15:21:52;9.02;;;1.30;;
70812;SDS011;62099;52.170;5.386;2022-10-16T15:24:19;16.70;;;1.60;;
70812;SDS011;62099;52.170;5.386;2022-10-16T15:26:46;16.75;;;2.88;;
70812;SDS011;62099;52.170;5.386;2022-10-16T15:29:13;9.23;;;1.50;;
70812;SDS011;62099;52.170;5.386;2022-10-16T15:31:40;10.27;;;1.92;;
70812;SDS011;62099;52.170;5.386;2022-10-16T15:34:10;11.95;;;1.50;;
70812;SDS011;62099;52.170;5.386;2022-10-16T15:36:37;13.13;;;1.80;;
70812;SDS011;62099;52.170;5.386;2022-10-16T15:39:04;8.05;;;1.33;;
70812;SDS011;62099;52.170;5.386;2022-10-16T15:41:37;9.65;;;1.77;;
70812;SDS011;62099;52.170;5.386;2022-10-16T15:46:31;6.93;;;1.80;;
70812;SDS011;62099;52.170;5.386;2022-10-16T15:49:00;7.50;;;1.23;;
70812;SDS011;62099;52.170;5.386;2022-10-16T15:51:27;13.80;;;1.80;;
70812;SDS011;62099;52.170;5.386;2022-10-16T15:53:56;10.70;;;1.83;;
70812;SDS011;62099;52.170;5.386;2022-10-16T15:56:23;14.00;;;3.13;;
70812;SDS011;62099;52.170;5.386;2022-10-16T15:58:51;9.45;;;1.50;;
70812;SDS011;62099;52.170;5.386;2022-10-16T16:01:20;12.30;;;1.67;;
70812;SDS011;62099;52.170;5.386;2022-10-16T16:03:47;12.13;;;2.30;;
70812;SDS011;62099;52.170;5.386;2022-10-16T16:06:19;10.38;;;1.73;;
70812;SDS011;62099;52.170;5.386;2022-10-16T16:08:46;12.70;;;1.98;;
70812;SDS011;62099;52.170;5.386;2022-10-16T16:13:40;14.93;;;2.25;;
70812;SDS011;62099;52.170;5.386;2022-10-16T16:16:08;10.88;;;2.88;;
70812;SDS011;62099;52.170;5.386;2022-10-16T16:18:36;9.18;;;2.65;;
70812;SDS011;62099;52.170;5.386;2022-10-16T16:21:03;12.30;;;2.67;;
70812;SDS011;62099;52.170;5.386;2022-10-16T16:23:31;10.65;;;2.85;;
70812;SDS011;62099;52.170;5.386;2022-10-16T16:26:05;13.88;;;3.05;;
70812;SDS011;62099;52.170;5.386;2022-10-16T16:28:36;16.13;;;2.60;;
70812;SDS011;62099;52.170;5.386;2022-10-16T16:31:03;13.15;;;3.30;;
70812;SDS011;62099;52.170;5.386;2022-10-16T16:33:30;14.80;;;2.97;;
70812;SDS011;62099;52.170;5.386;2022-10-16T16:35:58;17.58;;;3.55;;
70812;SDS011;62099;52.170;5.386;2022-10-16T16:38:26;11.38;;;3.78;;
70812;SDS011;62099;52.170;5.386;2022-10-16T16:40:53;16.23;;;3.47;;
70812;SDS011;62099;52.170;5.386;2022-10-16T16:43:25;13.55;;;3.25;;
70812;SDS011;62099;52.170;5.386;2022-10-16T16:45:53;11.13;;;3.20;;
70812;SDS011;62099;52.170;5.386;2022-10-16T16:48:20;10.98;;;2.83;;
70812;SDS011;62099;52.170;5.386;2022-10-16T16:50:47;12.13;;;3.33;;
70812;SDS011;62099;52.170;5.386;2022-10-16T16:53:14;12.43;;;4.10;;
70812;SDS011;62099;52.170;5.386;2022-10-16T16:55:41;14.98;;;3.70;;
70812;SDS011;62099;52.170;5.386;2022-10-16T17:00:35;12.57;;;3.92;;
70812;SDS011;62099;52.170;5.386;2022-10-16T17:05:28;16.60;;;4.25;;
70812;SDS011;62099;52.170;5.386;2022-10-16T17:07:55;16.48;;;5.10;;
70812;SDS011;62099;52.170;5.386;2022-10-16T17:10:22;16.67;;;5.05;;
70812;SDS011;62099;52.170;5.386;2022-10-16T17:12:48;17.20;;;5.78;;
70812;SDS011;62099;52.170;5.386;2022-10-16T17:15:16;15.55;;;4.75;;
70812;SDS011;62099;52.170;5.386;2022-10-16T17:20:09;17.35;;;5.47;;
70812;SDS011;62099;52.170;5.386;2022-10-16T17:25:03;20.70;;;6.55;;
70812;SDS011;62099;52.170;5.386;2022-10-16T17:27:31;15.25;;;5.57;;
70812;SDS011;62099;52.170;5.386;2022-10-16T17:29:59;16.25;;;5.78;;
70812;SDS011;62099;52.170;5.386;2022-10-16T17:34:53;15.40;;;5.40;;
70812;SDS011;62099;52.170;5.386;2022-10-16T17:37:20;20.08;;;6.35;;
70812;SDS011;62099;52.170;5.386;2022-10-16T17:42:15;16.70;;;5.60;;
70812;SDS011;62099;52.170;5.386;2022-10-16T17:44:42;15.63;;;5.57;;
70812;SDS011;62099;52.170;5.386;2022-10-16T17:47:09;19.98;;;6.20;;
70812;SDS011;62099;52.170;5.386;2022-10-16T17:49:37;18.67;;;5.93;;
70812;SDS011;62099;52.170;5.386;2022-10-16T17:52:03;15.43;;;5.75;;
70812;SDS011;62099;52.170;5.386;2022-10-16T17:54:30;14.55;;;5.68;;
70812;SDS011;62099;52.170;5.386;2022-10-16T17:56:57;17.05;;;5.53;;
70812;SDS011;62099;52.170;5.386;2022-10-16T17:59:23;22.83;;;6.30;;